createdAt,value
2018-10-12T00:01:26.183Z,19.30
2018-10-12T00:03:55.230Z,21.40
2018-10-12T00:06:24.603Z,19.70
2018-10-12T00:08:53.546Z,19.30
2018-10-12T00:11:22.390Z,19.17
2018-10-12T00:13:51.922Z,19.57
2018-10-12T00:16:20.899Z,18.80
2018-10-12T00:18:49.760Z,18.70
2018-10-12T00:21:18.688Z,19.40
2018-10-12T00:23:47.524Z,20.00
2018-10-12T00:26:16.590Z,18.73
2018-10-12T00:28:45.997Z,19.93
2018-10-12T00:31:14.889Z,19.07
2018-10-12T00:33:44.032Z,19.83
2018-10-12T00:36:12.979Z,19.07
2018-10-12T00:38:42.043Z,20.53
2018-10-12T00:41:11.027Z,19.50
2018-10-12T00:43:39.896Z,19.27
2018-10-12T00:46:08.961Z,19.90
2018-10-12T00:48:37.893Z,19.63
2018-10-12T00:51:06.842Z,20.27
2018-10-12T00:53:36.334Z,19.97
2018-10-12T00:56:05.554Z,20.97
2018-10-12T00:58:34.561Z,20.60
2018-10-12T01:01:03.698Z,20.60
2018-10-12T01:03:32.729Z,20.23
2018-10-12T01:06:01.949Z,19.40
2018-10-12T01:08:31.422Z,21.07
2018-10-12T01:11:00.316Z,19.57
2018-10-12T01:13:29.333Z,20.80
2018-10-12T01:15:58.197Z,20.80
2018-10-12T01:18:27.722Z,21.40
2018-10-12T01:20:56.693Z,21.70
2018-10-12T01:23:25.669Z,20.30
2018-10-12T01:25:54.596Z,20.50
2018-10-12T01:28:23.787Z,20.50
2018-10-12T01:30:52.646Z,20.67
2018-10-12T01:33:21.647Z,20.53
2018-10-12T01:35:50.705Z,20.60
2018-10-12T01:38:19.652Z,21.63
2018-10-12T01:40:48.596Z,21.97
2018-10-12T01:43:17.747Z,20.53
2018-10-12T01:45:46.697Z,21.40
2018-10-12T01:48:16.537Z,22.53
2018-10-12T01:50:45.561Z,21.47
2018-10-12T01:53:14.508Z,21.93
2018-10-12T01:55:43.896Z,22.07
2018-10-12T01:58:12.968Z,21.83
2018-10-12T02:00:42.089Z,21.60
2018-10-12T02:03:11.652Z,20.63
2018-10-12T02:05:40.586Z,21.83
2018-10-12T02:08:09.723Z,22.10
2018-10-12T02:10:39.641Z,22.40
2018-10-12T02:13:08.493Z,20.90
2018-10-12T02:15:39.266Z,21.40
2018-10-12T02:18:08.975Z,22.60
2018-10-12T02:20:37.945Z,23.40
2018-10-12T02:23:07.248Z,21.97
2018-10-12T02:25:37.098Z,22.60
2018-10-12T02:28:06.088Z,21.77
2018-10-12T02:30:35.143Z,22.37
2018-10-12T02:33:03.943Z,23.13
2018-10-12T02:35:32.973Z,22.80
2018-10-12T02:38:02.541Z,21.47
2018-10-12T02:40:31.897Z,22.67
2018-10-12T02:43:00.923Z,23.90
2018-10-12T02:45:30.079Z,22.67
2018-10-12T02:47:59.172Z,23.27
2018-10-12T02:50:28.104Z,22.07
2018-10-12T02:52:57.103Z,22.63
2018-10-12T02:55:25.996Z,22.80
2018-10-12T02:57:55.038Z,24.10
2018-10-12T03:00:23.978Z,24.87
2018-10-12T03:02:53.140Z,21.77
2018-10-12T03:05:22.084Z,23.57
2018-10-12T03:07:52.234Z,22.90
2018-10-12T03:10:21.226Z,24.40
2018-10-12T03:12:50.263Z,22.60
2018-10-12T03:15:19.283Z,22.67
2018-10-12T03:17:48.233Z,25.03
2018-10-12T03:20:17.292Z,23.93
2018-10-12T03:22:46.606Z,24.57
2018-10-12T03:25:15.714Z,23.13
2018-10-12T03:27:55.653Z,23.60
2018-10-12T03:30:24.778Z,24.67
2018-10-12T03:32:53.831Z,25.13
2018-10-12T03:35:22.856Z,22.40
2018-10-12T03:37:51.950Z,22.73
2018-10-12T03:40:21.290Z,23.97
2018-10-12T03:42:50.311Z,23.63
2018-10-12T03:45:20.118Z,23.63
2018-10-12T03:47:49.282Z,24.00
2018-10-12T03:50:18.972Z,24.37
2018-10-12T03:52:48.176Z,23.23
2018-10-12T03:55:17.083Z,24.03
2018-10-12T03:57:46.069Z,23.57
2018-10-12T04:00:14.978Z,24.10
2018-10-12T04:02:43.978Z,22.87
2018-10-12T04:05:13.306Z,23.33
2018-10-12T04:07:42.338Z,23.90
2018-10-12T04:10:11.474Z,23.57
2018-10-12T04:12:40.766Z,23.07
2018-10-12T04:15:09.951Z,24.63
2018-10-12T04:17:39.228Z,22.90
2018-10-12T04:20:08.484Z,22.77
2018-10-12T04:22:37.402Z,24.57
2018-10-12T04:25:06.738Z,23.30
2018-10-12T04:27:35.757Z,24.13
2018-10-12T04:30:05.031Z,23.97
2018-10-12T04:32:34.442Z,23.00
2018-10-12T04:35:03.927Z,24.53
2018-10-12T04:37:32.866Z,23.40
2018-10-12T04:40:15.652Z,22.67
2018-10-12T04:42:44.575Z,22.67
2018-10-12T04:45:13.679Z,21.30
2018-10-12T04:47:42.632Z,22.70
2018-10-12T04:50:11.723Z,24.07
2018-10-12T04:52:40.710Z,23.63
2018-10-12T04:55:10.346Z,22.77
2018-10-12T04:57:39.535Z,22.87
2018-10-12T05:00:08.836Z,24.03
2018-10-12T05:02:37.881Z,23.37
2018-10-12T05:05:07.146Z,23.00
2018-10-12T05:07:36.654Z,22.90
2018-10-12T05:10:05.820Z,21.20
2018-10-12T05:12:34.915Z,22.37
2018-10-12T05:15:08.733Z,22.73
2018-10-12T05:17:38.225Z,23.40
2018-10-12T05:20:07.213Z,21.90
2018-10-12T05:22:36.213Z,22.73
2018-10-12T05:25:05.073Z,21.30
2018-10-12T05:27:34.167Z,23.30
2018-10-12T05:30:03.380Z,22.03
2018-10-12T05:32:33.012Z,22.13
2018-10-12T05:35:02.274Z,23.10
2018-10-12T05:37:31.108Z,23.53
2018-10-12T05:40:00.169Z,23.00
2018-10-12T05:42:29.515Z,23.40
2018-10-12T05:44:58.657Z,22.20
2018-10-12T05:47:27.718Z,22.47
2018-10-12T05:50:04.481Z,21.57
2018-10-12T05:52:34.203Z,21.47
2018-10-12T05:55:03.524Z,23.87
2018-10-12T05:57:34.495Z,22.50
2018-10-12T06:00:03.521Z,22.17
2018-10-12T06:02:32.914Z,22.57
2018-10-12T06:05:02.298Z,23.43
2018-10-12T06:07:31.370Z,23.27
2018-10-12T06:10:00.736Z,23.17
2018-10-12T06:12:29.819Z,23.60
2018-10-12T06:14:58.874Z,22.43
2018-10-12T06:17:28.275Z,22.67
2018-10-12T06:19:58.322Z,23.60
2018-10-12T06:22:27.290Z,24.60
2018-10-12T06:24:56.258Z,26.80
2018-10-12T06:27:25.199Z,26.60
2018-10-12T06:29:54.221Z,24.97
2018-10-12T06:32:23.115Z,25.00
2018-10-12T06:34:52.173Z,25.77
2018-10-12T06:37:21.146Z,26.63
2018-10-12T06:39:50.107Z,25.80
2018-10-12T06:42:19.210Z,26.90
2018-10-12T06:44:48.112Z,26.77
2018-10-12T06:47:17.079Z,26.00
2018-10-12T06:49:46.243Z,27.03
2018-10-12T06:52:16.281Z,25.20
2018-10-12T06:54:45.236Z,26.00
2018-10-12T06:57:14.844Z,27.10
2018-10-12T06:59:43.744Z,28.03
2018-10-12T07:02:16.779Z,26.37
2018-10-12T07:04:46.607Z,25.87
2018-10-12T07:07:16.139Z,27.93
2018-10-12T07:09:45.359Z,25.87
2018-10-12T07:12:15.052Z,27.17
2018-10-12T07:14:44.223Z,26.13
2018-10-12T07:17:13.090Z,25.70
2018-10-12T07:19:43.254Z,26.93
2018-10-12T07:22:12.010Z,26.30
2018-10-12T07:24:41.846Z,26.80
2018-10-12T07:27:11.325Z,27.20
2018-10-12T07:29:40.486Z,26.83
2018-10-12T07:32:09.603Z,26.77
2018-10-12T07:34:38.664Z,26.00
2018-10-12T07:37:08.247Z,27.23
2018-10-12T07:39:37.371Z,25.90
2018-10-12T07:42:06.586Z,27.20
2018-10-12T07:44:36.022Z,24.87
2018-10-12T07:47:04.994Z,26.33
2018-10-12T07:49:33.993Z,27.20
2018-10-12T07:52:03.042Z,27.03
2018-10-12T07:54:31.970Z,27.33
2018-10-12T07:57:05.444Z,26.30
2018-10-12T07:59:34.362Z,25.30
2018-10-12T08:02:03.354Z,27.80
2018-10-12T08:04:32.273Z,26.33
2018-10-12T08:07:01.281Z,25.47
2018-10-12T08:09:30.254Z,26.10
2018-10-12T08:11:59.516Z,26.83
2018-10-12T08:14:28.480Z,26.47
2018-10-12T08:16:57.400Z,25.73
2018-10-12T08:19:26.515Z,26.23
2018-10-12T08:21:56.483Z,26.17
2018-10-12T08:24:25.509Z,25.60
2018-10-12T08:26:54.505Z,25.60
2018-10-12T08:29:25.200Z,24.63
2018-10-12T08:31:54.313Z,25.50
2018-10-12T08:34:23.806Z,24.60
2018-10-12T08:36:52.638Z,25.67
2018-10-12T08:39:21.690Z,23.87
2018-10-12T08:41:51.374Z,22.57
2018-10-12T08:44:20.391Z,23.60
2018-10-12T08:46:49.331Z,25.13
2018-10-12T08:49:18.223Z,23.97
2018-10-12T08:51:47.167Z,23.93
2018-10-12T08:54:16.211Z,23.70
2018-10-12T08:56:45.379Z,22.90
2018-10-12T08:59:14.354Z,24.43
2018-10-12T09:01:43.346Z,23.20
2018-10-12T09:04:12.550Z,23.43
2018-10-12T09:06:41.482Z,21.50
2018-10-12T09:09:11.464Z,21.40
2018-10-12T09:11:41.063Z,21.63
2018-10-12T09:14:10.368Z,19.83
2018-10-12T09:16:39.302Z,20.67
2018-10-12T09:19:08.739Z,20.03
2018-10-12T09:21:37.726Z,19.30
2018-10-12T09:24:07.997Z,19.93
2018-10-12T09:26:37.036Z,17.90
2018-10-12T09:29:05.998Z,18.30
2018-10-12T09:31:35.087Z,18.37
2018-10-12T09:34:04.136Z,17.63
2018-10-12T09:36:33.097Z,18.67
2018-10-12T09:39:02.157Z,18.40
2018-10-12T09:41:30.914Z,18.87
2018-10-12T09:44:00.477Z,17.00
2018-10-12T09:46:29.451Z,16.77
2018-10-12T09:48:58.490Z,16.90
2018-10-12T09:51:27.466Z,15.80
2018-10-12T09:53:57.158Z,16.70
2018-10-12T09:56:26.125Z,16.53
2018-10-12T09:58:55.995Z,23.30
2018-10-12T10:01:30.036Z,16.30
2018-10-12T10:04:04.187Z,14.70
2018-10-12T10:06:33.219Z,14.50
2018-10-12T10:09:03.349Z,15.70
2018-10-12T10:11:32.559Z,15.33
2018-10-12T10:14:01.626Z,14.40
2018-10-12T10:16:30.736Z,14.53
2018-10-12T10:18:59.702Z,13.73
2018-10-12T10:21:28.823Z,14.50
2018-10-12T10:23:58.316Z,12.97
2018-10-12T10:26:27.310Z,14.80
2018-10-12T10:28:56.329Z,13.80
2018-10-12T10:31:25.359Z,14.40
2018-10-12T10:33:54.503Z,21.37
2018-10-12T10:36:24.102Z,14.50
2018-10-12T10:38:53.131Z,14.50
2018-10-12T10:41:22.166Z,14.47
2018-10-12T10:43:51.422Z,14.50
2018-10-12T10:46:20.526Z,13.80
2018-10-12T10:48:49.693Z,13.90
2018-10-12T10:51:18.690Z,13.93
2018-10-12T10:53:47.785Z,14.03
2018-10-12T10:56:17.240Z,13.20
2018-10-12T10:58:46.400Z,14.00
2018-10-12T11:01:15.420Z,13.07
2018-10-12T11:03:44.282Z,12.73
2018-10-12T11:06:13.315Z,12.93
2018-10-12T11:08:42.232Z,12.20
2018-10-12T11:11:11.174Z,13.20
2018-10-12T11:13:40.142Z,12.50
2018-10-12T11:16:09.185Z,13.07
2018-10-12T11:18:38.156Z,12.53
2018-10-12T11:21:08.192Z,13.23
2018-10-12T11:23:37.082Z,12.73
2018-10-12T11:26:06.297Z,18.03
2018-10-12T11:28:35.220Z,14.30
2018-10-12T11:31:04.354Z,12.60
2018-10-12T11:33:33.368Z,12.67
2018-10-12T11:36:02.410Z,11.67
2018-10-12T11:38:31.521Z,12.60
2018-10-12T11:41:00.668Z,12.07
2018-10-12T11:43:35.230Z,12.40
2018-10-12T11:46:04.059Z,12.70
2018-10-12T11:48:33.114Z,10.87
2018-10-12T11:51:02.586Z,11.13
2018-10-12T11:53:31.650Z,12.00
2018-10-12T11:56:00.605Z,11.53
2018-10-12T11:58:29.740Z,11.00
2018-10-12T12:00:58.872Z,11.30
2018-10-12T12:03:27.966Z,11.83
2018-10-12T12:05:56.917Z,10.77
2018-10-12T12:08:25.912Z,11.57
2018-10-12T12:10:54.914Z,11.13
2018-10-12T12:13:24.181Z,10.67
2018-10-12T12:15:53.807Z,11.47
2018-10-12T12:18:22.748Z,12.03
2018-10-12T12:20:51.806Z,10.20
2018-10-12T12:23:20.671Z,10.07
2018-10-12T12:25:49.621Z,11.60
2018-10-12T12:28:18.642Z,11.17
2018-10-12T12:30:47.553Z,11.37
2018-10-12T12:33:17.034Z,10.27
2018-10-12T12:35:46.832Z,11.10
2018-10-12T12:38:15.803Z,11.33
2018-10-12T12:40:44.761Z,10.53
2018-10-12T12:43:13.669Z,10.37
2018-10-12T12:45:42.563Z,10.50
2018-10-12T12:48:12.664Z,9.60
2018-10-12T12:50:41.870Z,10.90
2018-10-12T12:53:10.733Z,11.30
2018-10-12T12:55:40.542Z,10.70
2018-10-12T12:58:09.551Z,11.33
2018-10-12T13:00:38.754Z,10.77
2018-10-12T13:03:07.919Z,10.57
2018-10-12T13:05:37.476Z,10.27
2018-10-12T13:08:06.554Z,9.00
2018-10-12T13:10:35.595Z,12.03
2018-10-12T13:13:04.435Z,11.20
2018-10-12T13:15:33.770Z,11.43
2018-10-12T13:18:02.592Z,11.60
2018-10-12T13:20:31.520Z,11.20
2018-10-12T13:23:00.579Z,10.60
2018-10-12T13:25:29.691Z,9.90
2018-10-12T13:27:59.214Z,10.93
2018-10-12T13:30:28.302Z,10.10
2018-10-12T13:32:57.667Z,9.90
2018-10-12T13:35:27.173Z,10.67
2018-10-12T13:37:56.122Z,9.20
2018-10-12T13:40:24.947Z,10.07
2018-10-12T13:42:54.371Z,9.60
2018-10-12T13:45:23.375Z,9.60
2018-10-12T13:47:52.429Z,9.93
2018-10-12T13:50:22.276Z,10.50
2018-10-12T13:52:51.211Z,9.83
2018-10-12T13:55:20.055Z,9.67
2018-10-12T13:57:49.015Z,10.57
2018-10-12T14:00:17.951Z,9.77
2018-10-12T14:02:47.699Z,8.80
2018-10-12T14:05:17.566Z,9.83
2018-10-12T14:07:46.601Z,9.47
2018-10-12T14:10:16.086Z,9.93
2018-10-12T14:12:45.230Z,10.10
2018-10-12T14:15:14.193Z,9.60
2018-10-12T14:17:43.270Z,9.00
2018-10-12T14:20:12.179Z,8.70
2018-10-12T14:22:41.093Z,9.30
2018-10-12T14:25:10.513Z,10.20
2018-10-12T14:27:39.520Z,8.90
2018-10-12T14:30:08.719Z,9.07
2018-10-12T14:32:37.741Z,8.97
2018-10-12T14:35:06.912Z,10.27
2018-10-12T14:37:36.074Z,9.10
2018-10-12T14:40:05.171Z,9.20
2018-10-12T14:42:34.127Z,9.10
2018-10-12T14:45:04.311Z,9.67
2018-10-12T14:47:34.194Z,9.70
2018-10-12T14:50:03.499Z,9.80
2018-10-12T14:52:32.438Z,9.53
2018-10-12T14:55:01.464Z,9.37
2018-10-12T14:57:30.577Z,10.30
2018-10-12T14:59:59.612Z,9.73
2018-10-12T15:02:28.532Z,10.53
2018-10-12T15:04:57.632Z,10.03
2018-10-12T15:07:26.661Z,10.13
2018-10-12T15:09:56.225Z,9.60
2018-10-12T15:12:25.282Z,10.00
2018-10-12T15:15:05.341Z,9.60
2018-10-12T15:17:35.023Z,9.83
2018-10-12T15:20:04.116Z,10.33
2018-10-12T15:22:33.260Z,9.10
2018-10-12T15:25:02.241Z,10.53
2018-10-12T15:27:31.351Z,10.20
2018-10-12T15:30:01.276Z,9.23
2018-10-12T15:32:30.687Z,10.23
2018-10-12T15:34:59.824Z,10.83
2018-10-12T15:37:29.444Z,10.50
2018-10-12T15:39:58.893Z,10.70
2018-10-12T15:42:27.998Z,10.00
2018-10-12T15:44:57.299Z,11.43
2018-10-12T15:47:26.387Z,11.03
2018-10-12T15:49:55.517Z,10.07
2018-10-12T15:52:25.387Z,10.53
2018-10-12T15:54:54.550Z,10.30
2018-10-12T15:57:28.590Z,10.83
2018-10-12T15:59:57.411Z,12.03
2018-10-12T16:02:26.484Z,10.20
2018-10-12T16:04:55.429Z,12.00
2018-10-12T16:07:25.296Z,11.63
2018-10-12T16:09:54.896Z,12.23
2018-10-12T16:12:24.454Z,11.00
2018-10-12T16:14:53.859Z,11.10
2018-10-12T16:17:22.982Z,10.50
2018-10-12T16:19:52.028Z,10.37
2018-10-12T16:22:21.252Z,11.90
2018-10-12T16:25:01.346Z,10.80
2018-10-12T16:27:30.926Z,12.10
2018-10-12T16:29:59.980Z,12.90
2018-10-12T16:32:29.534Z,12.13
2018-10-12T16:34:58.328Z,11.37
2018-10-12T16:37:27.497Z,12.60
2018-10-12T16:39:56.707Z,11.87
2018-10-12T16:42:25.805Z,11.70
2018-10-12T16:44:55.162Z,10.83
2018-10-12T16:47:24.544Z,11.83
2018-10-12T16:49:53.825Z,12.20
2018-10-12T16:52:22.787Z,12.77
2018-10-12T16:54:51.926Z,12.90
2018-10-12T16:57:25.035Z,12.30
2018-10-12T16:59:54.615Z,11.23
2018-10-12T17:02:23.636Z,12.03
2018-10-12T17:04:52.752Z,12.07
2018-10-12T17:07:21.804Z,12.70
2018-10-12T17:09:51.098Z,11.67
2018-10-12T17:12:20.065Z,13.00
2018-10-12T17:14:49.209Z,12.73
2018-10-12T17:17:18.194Z,12.20
2018-10-12T17:19:47.458Z,13.27
2018-10-12T17:22:16.297Z,12.70
2018-10-12T17:24:45.268Z,13.50
2018-10-12T17:27:14.442Z,12.90
2018-10-12T17:29:43.348Z,12.53
2018-10-12T17:32:12.378Z,13.33
2018-10-12T17:34:41.284Z,11.80
2018-10-12T17:37:10.975Z,12.57
2018-10-12T17:39:40.150Z,12.90
2018-10-12T17:42:16.590Z,12.50
2018-10-12T17:44:46.197Z,12.43
2018-10-12T17:47:15.992Z,12.80
2018-10-12T17:49:45.724Z,12.33
2018-10-12T17:52:14.969Z,13.10
2018-10-12T17:54:43.993Z,12.63
2018-10-12T17:57:13.378Z,13.90
2018-10-12T17:59:43.178Z,12.33
2018-10-12T18:02:12.182Z,12.83
2018-10-12T18:04:41.262Z,14.03
2018-10-12T18:07:10.445Z,12.53
2018-10-12T18:09:39.977Z,13.00
2018-10-12T18:12:09.245Z,13.77
2018-10-12T18:14:38.472Z,14.20
2018-10-12T18:17:07.758Z,14.10
2018-10-12T18:19:36.733Z,14.07
2018-10-12T18:22:06.214Z,13.03
2018-10-12T18:24:35.882Z,14.10
2018-10-12T18:27:05.111Z,13.60
2018-10-12T18:29:34.139Z,12.83
2018-10-12T18:32:03.371Z,13.03
2018-10-12T18:34:32.369Z,13.37
2018-10-12T18:37:01.477Z,12.40
2018-10-12T18:39:31.013Z,13.30
2018-10-12T18:42:00.775Z,19.53
2018-10-12T18:44:29.754Z,15.27
2018-10-12T18:46:59.163Z,19.70
2018-10-12T18:49:28.756Z,14.17
2018-10-12T18:51:57.783Z,12.87
2018-10-12T18:54:26.679Z,15.27
2018-10-12T18:56:56.063Z,15.13
2018-10-12T18:59:25.085Z,15.13
2018-10-12T19:02:00.797Z,14.43
2018-10-12T19:04:30.005Z,14.40
2018-10-12T19:06:59.316Z,13.30
2018-10-12T19:09:29.240Z,14.40
2018-10-12T19:11:58.319Z,13.27
2018-10-12T19:14:27.408Z,14.77
2018-10-12T19:16:56.350Z,13.23
2018-10-12T19:19:25.358Z,13.40
2018-10-12T19:21:55.212Z,13.70
2018-10-12T19:24:24.477Z,13.77
2018-10-12T19:26:53.608Z,13.63
2018-10-12T19:29:22.690Z,14.40
2018-10-12T19:31:51.733Z,13.13
2018-10-12T19:34:21.132Z,12.90
2018-10-12T19:36:50.260Z,14.33
2018-10-12T19:39:19.276Z,13.40
2018-10-12T19:41:48.441Z,13.60
2018-10-12T19:44:17.450Z,14.33
2018-10-12T19:46:46.741Z,14.63
2018-10-12T19:49:16.187Z,12.27
2018-10-12T19:51:45.522Z,12.80
2018-10-12T19:54:14.583Z,14.00
2018-10-12T19:56:43.683Z,13.00
2018-10-12T19:59:12.847Z,12.50
2018-10-12T20:01:41.988Z,12.90
2018-10-12T20:04:11.206Z,14.17
2018-10-12T20:06:40.206Z,14.50
2018-10-12T20:09:11.420Z,12.80
2018-10-12T20:11:41.022Z,14.00
2018-10-12T20:14:10.156Z,13.17
2018-10-12T20:16:39.338Z,15.20
2018-10-12T20:19:08.486Z,13.17
2018-10-12T20:21:37.866Z,13.10
2018-10-12T20:24:07.542Z,14.93
2018-10-12T20:26:36.639Z,13.37
2018-10-12T20:29:05.616Z,13.33
2018-10-12T20:31:34.845Z,14.10
2018-10-12T20:34:04.132Z,14.30
2018-10-12T20:36:33.218Z,12.30
2018-10-12T20:39:02.742Z,13.80
2018-10-12T20:41:32.382Z,13.23
2018-10-12T20:44:01.538Z,13.47
2018-10-12T20:46:30.635Z,13.07
2018-10-12T20:48:59.684Z,13.90
2018-10-12T20:51:28.676Z,13.83
2018-10-12T20:53:57.921Z,14.40
2018-10-12T20:56:26.860Z,15.57
2018-10-12T20:58:55.792Z,14.57
2018-10-12T21:01:24.877Z,15.67
2018-10-12T21:03:53.869Z,15.37
2018-10-12T21:06:22.941Z,14.60
2018-10-12T21:08:52.142Z,15.40
2018-10-12T21:11:21.273Z,15.10
2018-10-12T21:13:50.581Z,15.13
2018-10-12T21:16:19.728Z,14.70
2018-10-12T21:18:48.799Z,15.20
2018-10-12T21:21:17.886Z,14.13
2018-10-12T21:23:46.670Z,15.37
2018-10-12T21:26:15.758Z,14.10
2018-10-12T21:28:44.712Z,14.40
2018-10-12T21:31:13.808Z,15.10
2018-10-12T21:33:43.120Z,15.13
2018-10-12T21:36:12.947Z,14.77
2018-10-12T21:38:42.037Z,14.63
2018-10-12T21:41:11.116Z,14.80
2018-10-12T21:43:40.649Z,15.10
2018-10-12T21:46:09.570Z,14.23
2018-10-12T21:48:39.048Z,15.67
2018-10-12T21:51:09.084Z,15.10
2018-10-12T21:53:38.220Z,15.63
2018-10-12T21:56:07.307Z,16.33
2018-10-12T21:58:36.132Z,15.60
2018-10-12T22:01:06.136Z,14.77
2018-10-12T22:03:36.386Z,15.30
2018-10-12T22:06:05.639Z,14.87
2018-10-12T22:08:39.911Z,14.63
2018-10-12T22:11:08.884Z,15.40
2018-10-12T22:13:38.951Z,15.10
2018-10-12T22:16:08.189Z,14.30
2018-10-12T22:18:37.719Z,15.73
2018-10-12T22:21:07.124Z,15.27
2018-10-12T22:23:36.533Z,14.00
2018-10-12T22:26:05.553Z,16.10
2018-10-12T22:28:34.854Z,15.77
2018-10-12T22:31:03.820Z,15.97
2018-10-12T22:33:32.872Z,15.87
2018-10-12T22:36:01.842Z,15.73
2018-10-12T22:38:31.421Z,16.60
2018-10-12T22:41:00.403Z,15.70
2018-10-12T22:43:29.433Z,17.37
2018-10-12T22:45:58.698Z,16.30
2018-10-12T22:48:28.327Z,16.20
2018-10-12T22:50:57.260Z,16.30
2018-10-12T22:53:26.182Z,17.83
2018-10-12T22:55:55.142Z,15.37
2018-10-12T22:58:24.091Z,16.83
2018-10-12T23:00:53.059Z,16.50
2018-10-12T23:03:21.984Z,16.23
2018-10-12T23:05:51.386Z,15.83
2018-10-12T23:08:20.439Z,16.00
2018-10-12T23:10:49.364Z,16.50
2018-10-12T23:13:18.462Z,15.90
2018-10-12T23:15:50.288Z,16.37
2018-10-12T23:18:19.319Z,17.53
2018-10-12T23:20:48.297Z,16.93
2018-10-12T23:23:17.347Z,15.83
2018-10-12T23:25:46.758Z,17.10
2018-10-12T23:28:15.885Z,17.30
2018-10-12T23:30:44.912Z,18.07
2018-10-12T23:33:24.840Z,18.33
2018-10-12T23:35:53.955Z,16.87
2018-10-12T23:38:22.930Z,17.93
2018-10-12T23:40:52.350Z,18.17
2018-10-12T23:43:21.327Z,18.50
2018-10-12T23:45:50.418Z,17.83
2018-10-12T23:48:19.895Z,17.20
2018-10-12T23:50:49.044Z,16.70
2018-10-12T23:53:18.450Z,16.70
2018-10-12T23:55:47.530Z,17.77
2018-10-12T23:58:16.740Z,18.20
